Terminal Aerodrome Forecast
Issued by NWS

Home | Current Version | Previous Version | Text Only | Print | Product List | Glossary On
Versions: 1 2 3 4 5 6 7 8 9 10 11 12 13 14 15 16 17 18 19
000
FTUS44 KTSA 041700
TAFXNA
TAF
KXNA 041720Z 0418/0518 01014G20KT 4SM -SNPL OVC015
      TEMPO 0418/0420 1SM -SN OVC008
     FM042000 01012KT 1 1/2SM -SN OVC008
      TEMPO 0421/0501 3/4SM -SN OVC004
     FM050100 02008KT 5SM -SN BKN025 OVC050
     FM050600 04005KT P6SM BKN100=

USA.gov is the U.S. government's official web portal to all federal, state and local government web resources and services.